Create Custom Reports and Graphics: Custom Report

Lindcove R.E.C.

Current Conditions

12/4/20 5:45 PM (-08:00)
Updated Every 15 Minutes
Temp 47.1 °F   1.4
Upper Temp 58.5 °F   1.1
Temp Inversion 11.4 °F   0.4
RH 61 %   3
Dew Pt 34.3 °F   0.1
Wind Dir E | 96 °
Wind Spd 0.6 mph   0.1
Wind Gust 1.8 mph   0.2
BatVolt 12.7 V   0.0

Today & Yesterday

Lindcove R.E.C.

12/4/20 5:45 PM (-08:00)
Updated Every 15 Minutes
Daily Max Temp 72.6 °F   1.3
Time of Max Temp 1506
Daily Min Temp 30.2 °F   1.6
Time of Min Temp 0654
Upper Max Temp 68.0 °F   3.4
Upper Min Temp 35.7 °F   2.2
Daily Max Wind 6.4 mph   0.2
Time of Max Wind 1407
Max Wind Dir W | 279 °
Daily Rain 0.00 In
Yesterday's Max Temp 73.9 °F
Yesterday’s Min Temp 31.8 °F
Yesterday's Max Wind 6.6 mph
Yesterday's Rainfall 0.00 In
Monthly Rain 0.00 In
Seasonal Rainfall 0.44 In

Daily Meteorological Summary

Last 30 Days

Daily Data | America/Los_Angeles
as of 12/4/20 5:49 PM PST
Date Daily Max Temp (°F) Time of Max Temp Daily Min Temp (°F) Time of Min Temp Daily Rain (In) Seasonal Rainfall (In) Wind Spd (mph) Daily Max Wind (mph) Time of Max Wind Max Wind Dir (°) Dew Pt (°F) Max RH (%) Min RH (%) Upper Max Temp (°F) Max Upper Temp Time Upper Min Temp (°F) Min Upper Temp Time Max Temp Inversion (°F) Time of Max Temp Inversion Min Temp Inversion (°F) Time of Min Temp Inversion Max 1 Min Rain (In) Max 1 Min Rain Time Max 15 Min Rain (In) Max 15 Min Precip Time Max 60 Min Rain (In) Max 60 Min Rain Time Storm Total (In) Bat Volt Min Day (V)
12/3/20 73.9 1449 31.8 0602 0.00 0.44 1.0 6.6 1058 WNW | 300 30.5 90 16 71.4 1500 37.8 0552 16.0 2105 -5.8 1349 - - - - - - - 12.3
12/2/20 71.6 1518 30.2 0655 0.00 0.44 0.9 6.4 1253 WNW | 289 32.8 94 24 69.2 1454 34.7 0715 12.6 2329 -5.7 1342 - - - - - - - 12.3
12/1/20 69.7 1404 30.6 0700 0.00 0.44 0.9 6.6 1417 WSW | 246 32.6 94 24 67.4 1358 35.4 0655 11.4 1724 -4.8 1442 - - - - - - - 12.3
11/30/20 69.2 1415 29.6 0706 0.00 0.44 1.0 7.9 1327 WNW | 298 31.7 94 23 65.6 1440 34.5 0715 12.8 1844 -5.6 1418 - - - - - - - 12.3
11/29/20 71.0 1500 29.0 0617 0.00 0.44 0.9 6.6 1434 W | 278 31.3 94 22 67.1 1403 33.9 0701 13.2 0109 -5.5 1503 - - - - - - - 12.3
11/28/20 69.8 1339 29.6 0707 0.00 0.44 0.9 7.0 1217 NNW | 328 31.0 94 22 65.9 1438 34.5 0702 12.5 0412 -6.3 1336 - - - - - - - 12.3
11/27/20 67.2 1401 30.6 0656 0.00 0.44 1.1 6.4 1155 SSW | 204 33.1 94 26 63.8 1440 33.9 0712 10.7 1802 -5.7 1339 - - - - - - - 12.3
11/26/20 65.7 1436 33.8 0537 0.00 0.44 1.5 14.5 1151 WSW | 242 35.1 95 31 62.0 1430 36.1 0600 9.0 1818 -6.3 1359 - - - - - - - 12.3
11/25/20 68.0 1313 35.4 0541 0.00 0.44 1.2 8.8 1304 WSW | 248 38.1 95 32 64.5 1209 39.8 0443 10.0 2213 -5.3 1313 - - - - - - - 12.3
11/24/20 69.4 1453 36.9 0608 0.00 0.44 1.0 7.9 1356 SW | 232 39.5 95 34 67.4 1335 40.9 0526 9.9 1912 -5.2 1351 - - - - - - - 12.4
11/23/20 66.4 1418 40.7 2358 0.00 0.44 1.0 8.1 1212 SW | 233 41.9 95 38 64.4 1456 45.3 0629 8.8 2359 -4.2 1007 - - - - - - - 12.4
11/22/20 69.2 1407 36.4 0629 0.00 0.44 1.1 6.6 1319 W | 266 42.1 96 43 65.0 1501 39.7 0709 8.0 1810 -5.5 1408 - - - - - - - 12.4
11/21/20 64.2 1406 36.5 0601 0.00 0.44 1.0 7.0 1325 N | 353 42.2 96 52 62.4 1406 38.9 0659 6.4 0454 -3.6 1226 - - - - - - 0.01 12.3
11/20/20 59.0 1407 38.4 0210 0.01 0.44 0.8 5.9 1308 SW | 229 43.3 96 65 57.7 1443 41.2 0636 9.1 0222 -2.1 1408 0.01 0732 0.01 0746 0.01 0831 0.01 12.3
11/19/20 63.2 1513 39.3 0608 0.00 0.43 1.2 9.9 1308 SW | 228 44.2 96 58 62.5 1529 40.9 0602 7.5 2359 -4.7 1419 - - - - - - 0.01 12.3
11/18/20 71.3 1512 44.8 0337 0.01 0.43 1.0 7.2 0957 WSW | 241 46.3 95 52 69.0 1539 48.9 0322 14.6 0133 -3.4 1509 0.01 0935 0.01 0949 0.01 1034 0.01 12.3
11/17/20 80.7 1232 43.5 0135 0.00 0.42 1.1 7.5 0550 ESE | 109 41.7 93 16 80.5 1205 49.2 0107 12.8 0731 -1.6 0952 - - - - - - - 12.4
11/16/20 75.4 1505 38.0 0631 0.00 0.42 0.9 6.8 1538 W | 281 43.7 96 34 72.2 1449 41.9 0656 12.4 2352 -5.2 1321 - - - - - - - 12.4
11/15/20 71.3 1426 39.0 0616 0.00 0.42 1.0 7.5 1228 WNW | 301 43.3 96 40 67.7 1537 41.8 0628 8.5 1847 -6.1 1326 - - - - - - - 12.4
11/14/20 71.2 1440 39.4 0635 0.00 0.42 1.5 10.5 1001 SSW | 196 43.4 94 40 67.4 1507 43.5 0621 8.8 0350 -5.7 1325 - - - - - - - 12.4
11/13/20 71.4 1359 34.2 0639 0.00 0.42 1.0 6.8 1219 WSW | 254 38.2 95 26 67.3 1431 37.8 0556 10.3 0155 -5.9 1404 - - - - - - - 12.3
11/12/20 69.8 1454 39.2 0650 0.00 0.42 1.1 7.9 1347 WNW | 295 39.3 94 27 66.9 1454 41.3 0707 9.1 2101 -5.2 1001 - - - - - - - 12.3
11/11/20 60.9 1416 32.4 0624 0.00 0.42 0.9 7.7 1432 WNW | 298 37.4 96 35 60.2 1158 36.5 0529 6.7 0459 -5.7 1033 - - - - - - - 12.3
11/10/20 63.6 1420 31.5 0553 0.00 0.42 1.0 8.1 1216 NW | 320 34.8 96 32 59.4 1522 34.3 0533 8.4 0610 -5.7 1416 - - - - - - - 12.3
11/9/20 60.8 1450 30.2 0605 0.00 0.42 1.4 8.8 1045 WSW | 243 35.4 95 12 56.6 1451 33.6 0636 7.7 2311 -6.5 1410 - - - - - - 0.42 12.3
11/8/20 51.7 1110 34.2 2350 0.20 0.42 2.9 20.6 1426 NNE | 16 39.2 94 12 51.8 1109 36.8 2341 6.0 2052 -1.9 1205 0.01 1458 0.07 1220 0.09 1300 0.42 12.4
11/7/20 50.3 0852 42.0 0122 0.22 0.22 1.9 14.0 1112 WSW | 250 42.1 94 12 50.3 1429 44.1 0258 5.1 0120 -1.7 1113 0.01 1206 0.05 1011 0.12 1041 0.22 12.4
11/6/20 72.1 0953 44.8 0001 0.00 0.00 2.7 17.8 1514 WNW | 300 40.8 94 12 68.5 0957 48.6 2315 9.3 0150 -5.1 1004 - - - - - - - 12.4
11/5/20 79.2 1302 44.4 0627 0.00 0.00 1.0 6.6 1329 WSW | 254 44.5 94 12 77.4 1258 50.2 0522 10.4 0035 -3.9 1304 - - - - - - - 12.4
11/4/20 82.3 1428 44.1 0619 0.00 0.00 1.0 7.9 1131 WSW | 243 43.8 94 12 80.0 1423 49.6 0606 12.0 0159 -5.0 1042 - - - - - - - 12.4
Max 82.3 - 44.8 - 0.22 - 2.9 20.6 - - 46.3 96 65 80.5 - 50.2 - 16.0 - -1.6 - 0.01 - 0.07 - 0.12 - 0.42 12.4
Avg - - - - - - 1.2 - - - 38.8 - - - - - - - - - - - - - - - - 0.16 -
Min 50.3 - 29.0 - 0.00 - 0.8 5.9 - - 30.5 90 12 50.3 - 33.6 - 5.1 - -6.5 - 0.01 - 0.01 - 0.01 - 0.01 12.3

Daily Bio-Meteorological Summary

Last 30 Days

Daily Data | America/Los_Angeles
as of 12/4/20 5:49 PM PST
Date Daily Max Temp (°F) Daily Min Temp (°F) Daily Rain (In) GDDs (DL) GDDs (Mx/Mn) Chilling <=45F (hrs) Chill Hrs 32-45F (hrs) Utah Chilling (Units) Chilling <=45F Seas (hrs) Chill Hrs 32-45 Seas (hrs) Utah Chilling Seas (Units) Chill Portions Hrs 70-85F (hrs) Hrs > 95F (hrs) Bee Hrs Today (Hrs) Hrs <= 32F (hrs) Hrs <= 28F (hrs)
12/3/20 73.9 31.8 0.00 5.3 2.9 14.2 14.1 6.5 299 268 171 15 2.43 0.00 6.9 0.1 0.0
12/2/20 71.6 30.2 0.00 4.4 0.9 14.8 11.2 6.5 284 254 166 14 0.44 0.00 6.7 3.6 0.0
12/1/20 69.7 30.6 0.00 3.8 0.1 14.9 11.5 6.5 270 243 160 14 0.00 0.00 6.6 3.4 0.0
11/30/20 69.2 29.6 0.00 3.8 0.0 15.1 11.0 6.0 255 232 154 13 0.00 0.00 6.5 4.1 0.0
11/29/20 71.0 29.0 0.00 4.1 0.0 15.0 8.7 6.5 240 221 148 12 0.30 0.00 6.7 6.2 0.0
11/28/20 69.8 29.6 0.00 4.0 0.0 15.0 9.3 0.0 225 212 142 12 0.00 0.00 6.7 5.7 0.0
11/27/20 67.2 30.6 0.00 3.2 0.0 15.2 12.7 0.0 210 203 138 11 0.00 0.00 6.5 2.5 0.0
11/26/20 65.7 33.8 0.00 2.9 0.0 14.0 14.0 7.0 194 190 132 10 0.00 0.00 6.8 0.0 0.0
11/25/20 68.0 35.4 0.00 4.1 1.7 12.2 12.2 6.5 180 176 126 10 0.00 0.00 6.8 0.0 0.0
11/24/20 69.4 36.9 0.00 4.2 3.1 13.0 13.0 6.5 168 164 120 10 0.00 0.00 6.8 0.0 0.0
11/23/20 66.4 40.7 0.00 3.6 3.5 10.6 10.6 6.5 155 151 115 10 0.00 0.00 6.8 0.0 0.0
11/22/20 69.2 36.4 0.00 3.9 2.8 11.3 11.3 5.5 145 140 110 9 0.00 0.00 6.4 0.0 0.0
11/21/20 64.2 36.5 0.00 3.2 0.4 11.1 11.1 5.5 133 129 105 9 0.00 0.00 6.3 0.0 0.0
11/20/20 59.0 38.4 0.01 1.9 0.0 11.6 11.6 5.5 122 118 100 8 0.00 0.00 4.6 0.0 0.0
11/19/20 63.2 39.3 0.00 1.6 1.3 11.1 11.1 6.5 111 106 96 7 0.00 0.00 3.1 0.0 0.0
11/18/20 71.3 44.8 0.01 4.9 8.0 0.2 0.2 4.0 100 95 90 6 0.15 0.00 6.0 0.0 0.0
11/17/20 80.7 43.5 0.00 10.2 12.1 3.3 3.3 2.0 99 95 88 6 6.38 0.00 8.4 0.0 0.0
11/16/20 75.4 38.0 0.00 6.4 6.7 8.1 8.1 4.0 96 92 86 6 2.91 0.00 7.2 0.0 0.0
11/15/20 71.3 39.0 0.00 5.3 5.2 10.1 10.1 5.0 88 84 83 6 0.90 0.00 7.2 0.0 0.0
11/14/20 71.2 39.4 0.00 5.3 5.3 7.1 7.1 4.5 78 73 79 6 0.75 0.00 7.3 0.0 0.0
11/13/20 71.4 34.2 0.00 5.7 2.8 8.4 8.4 3.0 71 66 76 5 0.26 0.00 7.1 0.0 0.0
11/12/20 69.8 39.2 0.00 4.8 4.5 6.3 6.3 5.0 62 58 73 5 0.00 0.00 7.1 0.0 0.0
11/11/20 60.9 32.4 0.00 2.6 0.0 8.7 8.7 6.0 56 52 69 5 0.00 0.00 6.7 0.0 0.0
11/10/20 63.6 31.5 0.00 2.4 0.0 14.8 13.8 7.0 47 43 64 4 0.00 0.00 6.1 0.9 0.0
11/9/20 60.8 30.2 0.00 1.5 0.0 15.6 12.1 7.0 33 29 58 3 0.00 0.00 2.9 0.0 3.5
11/8/20 51.7 34.2 0.20 0.0 0.0 9.6 9.6 22.5 - - - 3 0.00 0.00 0.0 0.0 0.0
11/7/20 50.3 42.0 0.22 0.0 0.0 4.7 4.7 20.5 - - - 2 0.00 0.00 0.0 0.0 0.0
11/6/20 72.1 44.8 0.00 7.6 8.5 0.0 0.0 2.0 - - - 1 0.70 0.00 8.6 0.0 0.0
11/5/20 79.2 44.4 0.00 10.1 11.8 0.8 0.8 1.5 - - - 1 6.74 0.00 8.5 0.0 0.0
11/4/20 82.3 44.1 0.00 10.6 13.2 1.8 1.8 2.0 - - - 1 7.14 0.00 8.5 0.0 0.0
Max 82.3 44.8 0.22 10.6 13.2 15.6 14.1 22.5 - - - 15 7.14 0.00 8.6 6.2 3.5
Avg - - - 4.4 3.2 10.0 9.0 5.9 - - - 7 0.97 0.00 6.2 0.9 0.1
Min 50.3 29.0 0.00 0.0 0.0 0.0 0.0 0.0 - - - 1 0.00 0.00 0.0 0.0 0.0
Total - - - 131.3 94.9 298.6 268.6 177.5 - - - - 29.11 0.00 186.0 26.6 3.5

Climate Summary

Lindcove R.E.C.

Current Year | Showing 1/1/20 - 12/3/20
as of 12/4/20 5:49 PM PST
Temperature (°F) Precip (in) Days
Month Days Avg Max Avg Min Max Max Min Min Total Daily Min Temp < 28 Daily Min Temp < 32 Daily Max Temp > 90 Daily Max Temp > 100 Daily Rain > 0.01 Daily Rain > 0.1
Jan 2020 31 60.7 37.8 69.2 31.5 0.56 0 2 0 0 1 1
Feb 2020 29 72.1 36.3 86.4 26.9 0.34 2 7 0 0 1 1
Mar 2020 31 69.6 42.1 87.1 33.2 2.19 0 0 0 0 9 6
Apr 2020 30 77.4 49.8 95.7 37.2 2.4 0 0 4 0 7 6
May 2020 31 89.7 53.9 108.2 45.3 0.38 0 0 12 6 1 1
Jun 2020 30 95.8 59.8 107.5 47.1 0 0 0 20 13 0 0
Jul 2020 31 101.3 62.7 108.7 55.4 0.1 0 0 31 19 2 0
Aug 2020 31 101.6 65.7 111 58.9 0 0 0 31 22 0 0
Sep 2020 30 93.3 59.5 107.3 53.3 0 0 0 20 4 0 0
Oct 2020 31 87.9 50.4 98.4 37.1 0 0 0 12 0 0 0
Nov 2020 30 69.7 37.9 86.3 29 0.44 0 6 0 0 2 2
Dec 2020 3 71.7 30.9 73.9 30.2 0 0 3 0 0 0 0
Total 338 - - - - 6.41 2 18 130 64 23 17
Average 28.2 82.6 48.9 - - 0.53 0.2 1.5 10.8 5.3 1.9 1.4
Maximum 31 101.6 65.7 111 - 2.4 2 7 31 22 9 6
Minimum 3 60.7 30.9 - 26.9 0 0 0 0 0 0 0

Climate Summary

Lindcove R.E.C.

Last Year | Showing 1/1/19 - 12/31/19
as of 12/4/20 5:49 PM PST
Temperature (°F) Precip (in) Days
Month Days Avg Max Avg Min Max Max Min Min Total Daily Min Temp < 28 Daily Min Temp < 32 Daily Max Temp > 90 Daily Max Temp > 100 Daily Rain > 0.01 Daily Rain > 0.1
Jan 2019 31 65.1 39.3 73.2 27.7 1.78 1 5 0 0 9 5
Feb 2019 28 60.9 37.6 74.6 26.9 3.52 1 11 0 0 14 8
Mar 2019 31 70.3 42.3 84.5 34.4 2.55 0 0 0 0 8 4
Apr 2019 30 82.4 49.5 97.3 38.3 0.62 0 0 8 0 3 2
May 2019 31 80.3 52.2 92.7 45.7 2 0 0 6 0 8 5
Jun 2019 30 97.5 61.1 108.7 49.6 0 0 0 28 12 0 0
Jul 2019 31 100.6 63.5 109.4 56.1 0 0 0 31 17 0 0
Aug 2019 31 101 64.7 107.9 57.4 0 0 0 31 18 0 0
Sep 2019 30 93.4 57.3 105.9 40.4 0 0 0 17 11 0 0
Oct 2019 31 82.9 43.5 93.5 32.8 0 0 0 5 0 0 0
Nov 2019 30 74.1 38.7 85.5 30.7 1.19 0 2 0 0 4 3
Dec 2019 31 62.3 39.5 72.8 30.5 2.37 0 1 0 0 8 6
Total 365 - - - - 14.03 2 19 126 58 54 33
Average 30.4 80.9 49.1 - - 1.17 0.2 1.6 10.5 4.8 4.5 2.8
Maximum 31 101 64.7 109.4 - 3.52 1 11 31 18 14 8
Minimum 28 60.9 37.6 - 26.9 0 0 0 0 0 0 0
Calm: 0.0%
Calm: 0.0%